sensor_id;sensor_type;location;lat;lon;timestamp;temperature;humidity
76263;DHT22;65080;50.908;6.916;2023-02-15T00:01:06;5.10;65.50
76263;DHT22;65080;50.908;6.916;2023-02-15T00:03:35;5.10;65.70
76263;DHT22;65080;50.908;6.916;2023-02-15T00:06:03;5.00;65.70
76263;DHT22;65080;50.908;6.916;2023-02-15T00:08:32;5.00;65.80
76263;DHT22;65080;50.908;6.916;2023-02-15T00:11:05;5.00;65.90
76263;DHT22;65080;50.908;6.916;2023-02-15T00:13:33;5.00;66.00
76263;DHT22;65080;50.908;6.916;2023-02-15T00:16:08;4.90;66.00
76263;DHT22;65080;50.908;6.916;2023-02-15T00:18:37;4.90;66.10
76263;DHT22;65080;50.908;6.916;2023-02-15T00:21:08;5.00;66.20
76263;DHT22;65080;50.908;6.916;2023-02-15T00:23:37;5.00;66.30
76263;DHT22;65080;50.908;6.916;2023-02-15T00:26:06;4.90;66.10
76263;DHT22;65080;50.908;6.916;2023-02-15T00:28:35;4.90;66.20
76263;DHT22;65080;50.908;6.916;2023-02-15T00:31:09;4.90;66.30
76263;DHT22;65080;50.908;6.916;2023-02-15T00:33:39;4.90;66.40
76263;DHT22;65080;50.908;6.916;2023-02-15T00:36:08;4.90;66.50
76263;DHT22;65080;50.908;6.916;2023-02-15T00:38:37;4.90;66.50
76263;DHT22;65080;50.908;6.916;2023-02-15T00:41:07;4.80;66.40
76263;DHT22;65080;50.908;6.916;2023-02-15T00:43:36;4.80;66.50
76263;DHT22;65080;50.908;6.916;2023-02-15T00:46:05;4.80;66.60
76263;DHT22;65080;50.908;6.916;2023-02-15T00:48:34;4.70;66.70
76263;DHT22;65080;50.908;6.916;2023-02-15T00:51:03;4.70;66.80
76263;DHT22;65080;50.908;6.916;2023-02-15T00:53:31;4.80;66.90
76263;DHT22;65080;50.908;6.916;2023-02-15T00:55:59;4.80;66.80
76263;DHT22;65080;50.908;6.916;2023-02-15T00:58:28;4.70;66.80
76263;DHT22;65080;50.908;6.916;2023-02-15T01:01:03;4.80;66.90
76263;DHT22;65080;50.908;6.916;2023-02-15T01:03:33;4.80;67.00
76263;DHT22;65080;50.908;6.916;2023-02-15T01:06:03;4.70;66.80
76263;DHT22;65080;50.908;6.916;2023-02-15T01:08:31;4.70;66.80
76263;DHT22;65080;50.908;6.916;2023-02-15T01:11:03;4.70;66.80
76263;DHT22;65080;50.908;6.916;2023-02-15T01:13:32;4.70;66.90
76263;DHT22;65080;50.908;6.916;2023-02-15T01:16:01;4.70;67.00
76263;DHT22;65080;50.908;6.916;2023-02-15T01:18:31;4.70;67.00
76263;DHT22;65080;50.908;6.916;2023-02-15T01:21:09;4.70;67.00
76263;DHT22;65080;50.908;6.916;2023-02-15T01:23:37;4.70;67.00
76263;DHT22;65080;50.908;6.916;2023-02-15T01:26:05;4.70;67.10
76263;DHT22;65080;50.908;6.916;2023-02-15T01:28:33;4.50;66.90
76263;DHT22;65080;50.908;6.916;2023-02-15T01:31:05;4.60;67.10
76263;DHT22;65080;50.908;6.916;2023-02-15T01:33:35;4.50;67.10
76263;DHT22;65080;50.908;6.916;2023-02-15T01:36:05;4.50;67.20
76263;DHT22;65080;50.908;6.916;2023-02-15T01:38:34;4.50;67.30
76263;DHT22;65080;50.908;6.916;2023-02-15T01:41:03;4.50;67.20
76263;DHT22;65080;50.908;6.916;2023-02-15T01:43:52;4.50;67.30
76263;DHT22;65080;50.908;6.916;2023-02-15T01:46:24;4.50;67.30
76263;DHT22;65080;50.908;6.916;2023-02-15T01:48:59;4.40;67.20
76263;DHT22;65080;50.908;6.916;2023-02-15T01:51:31;4.40;67.30
76263;DHT22;65080;50.908;6.916;2023-02-15T01:54:04;4.40;67.40
76263;DHT22;65080;50.908;6.916;2023-02-15T01:56:35;4.40;67.50
76263;DHT22;65080;50.908;6.916;2023-02-15T01:59:06;4.40;67.40
76263;DHT22;65080;50.908;6.916;2023-02-15T02:01:35;4.30;67.40
76263;DHT22;65080;50.908;6.916;2023-02-15T02:04:10;4.40;67.50
76263;DHT22;65080;50.908;6.916;2023-02-15T02:06:44;4.30;67.40
76263;DHT22;65080;50.908;6.916;2023-02-15T02:09:14;4.30;67.50
76263;DHT22;65080;50.908;6.916;2023-02-15T02:11:46;4.30;67.70
76263;DHT22;65080;50.908;6.916;2023-02-15T02:14:15;4.30;67.70
76263;DHT22;65080;50.908;6.916;2023-02-15T02:16:51;4.30;67.80
76263;DHT22;65080;50.908;6.916;2023-02-15T02:19:43;4.20;67.80
76263;DHT22;65080;50.908;6.916;2023-02-15T02:28:30;4.20;67.80
76263;DHT22;65080;50.908;6.916;2023-02-15T02:31:24;4.10;67.80
76263;DHT22;65080;50.908;6.916;2023-02-15T02:34:01;4.10;68.00
76263;DHT22;65080;50.908;6.916;2023-02-15T02:36:38;4.10;68.00
76263;DHT22;65080;50.908;6.916;2023-02-15T02:39:14;4.00;67.90
76263;DHT22;65080;50.908;6.916;2023-02-15T02:41:52;4.00;68.10
76263;DHT22;65080;50.908;6.916;2023-02-15T02:44:25;4.00;68.20
76263;DHT22;65080;50.908;6.916;2023-02-15T02:46:58;3.90;68.20
76263;DHT22;65080;50.908;6.916;2023-02-15T02:49:34;3.90;68.40
76263;DHT22;65080;50.908;6.916;2023-02-15T02:52:05;3.90;68.50
76263;DHT22;65080;50.908;6.916;2023-02-15T02:54:34;3.90;68.60
76263;DHT22;65080;50.908;6.916;2023-02-15T02:57:05;3.90;68.70
76263;DHT22;65080;50.908;6.916;2023-02-15T02:59:38;3.90;69.30
76263;DHT22;65080;50.908;6.916;2023-02-15T03:02:13;3.90;68.70
76263;DHT22;65080;50.908;6.916;2023-02-15T03:04:47;3.80;68.80
76263;DHT22;65080;50.908;6.916;2023-02-15T03:07:26;3.80;68.90
76263;DHT22;65080;50.908;6.916;2023-02-15T03:09:58;3.80;68.80
76263;DHT22;65080;50.908;6.916;2023-02-15T03:12:29;3.80;68.90
76263;DHT22;65080;50.908;6.916;2023-02-15T03:15:02;3.80;69.00
76263;DHT22;65080;50.908;6.916;2023-02-15T03:17:34;3.80;69.20
76263;DHT22;65080;50.908;6.916;2023-02-15T03:20:08;3.80;69.20
76263;DHT22;65080;50.908;6.916;2023-02-15T03:22:40;3.80;69.20
76263;DHT22;65080;50.908;6.916;2023-02-15T03:25:14;3.80;69.10
76263;DHT22;65080;50.908;6.916;2023-02-15T03:27:49;3.70;69.10
76263;DHT22;65080;50.908;6.916;2023-02-15T03:30:22;3.70;69.50
76263;DHT22;65080;50.908;6.916;2023-02-15T03:32:51;3.70;69.40
76263;DHT22;65080;50.908;6.916;2023-02-15T03:35:24;3.70;69.30
76263;DHT22;65080;50.908;6.916;2023-02-15T03:37:57;3.70;70.10
76263;DHT22;65080;50.908;6.916;2023-02-15T03:40:30;3.70;69.60
76263;DHT22;65080;50.908;6.916;2023-02-15T03:43:21;3.70;69.50
76263;DHT22;65080;50.908;6.916;2023-02-15T03:45:55;3.70;69.50
76263;DHT22;65080;50.908;6.916;2023-02-15T03:48:28;3.70;69.60
76263;DHT22;65080;50.908;6.916;2023-02-15T03:51:02;3.60;69.50
76263;DHT22;65080;50.908;6.916;2023-02-15T03:53:49;3.60;69.60
76263;DHT22;65080;50.908;6.916;2023-02-15T03:56:18;3.60;69.50
76263;DHT22;65080;50.908;6.916;2023-02-15T03:58:46;3.60;69.50
76263;DHT22;65080;50.908;6.916;2023-02-15T04:01:35;3.50;69.70
76263;DHT22;65080;50.908;6.916;2023-02-15T04:04:28;3.50;69.70
76263;DHT22;65080;50.908;6.916;2023-02-15T04:07:01;3.50;69.70
76263;DHT22;65080;50.908;6.916;2023-02-15T04:09:29;3.50;69.80
76263;DHT22;65080;50.908;6.916;2023-02-15T04:12:15;3.60;69.90
76263;DHT22;65080;50.908;6.916;2023-02-15T04:14:43;3.50;69.80
76263;DHT22;65080;50.908;6.916;2023-02-15T04:17:29;3.50;69.70
76263;DHT22;65080;50.908;6.916;2023-02-15T04:19:57;3.50;69.80
76263;DHT22;65080;50.908;6.916;2023-02-15T04:22:45;3.50;69.90
76263;DHT22;65080;50.908;6.916;2023-02-15T04:25:30;3.50;69.90
76263;DHT22;65080;50.908;6.916;2023-02-15T04:27:58;3.50;69.90
76263;DHT22;65080;50.908;6.916;2023-02-15T04:30:27;3.50;70.00
76263;DHT22;65080;50.908;6.916;2023-02-15T04:32:55;3.50;70.10
76263;DHT22;65080;50.908;6.916;2023-02-15T04:35:24;3.50;70.00
76263;DHT22;65080;50.908;6.916;2023-02-15T04:37:53;3.50;70.10
76263;DHT22;65080;50.908;6.916;2023-02-15T04:40:22;3.50;70.00
76263;DHT22;65080;50.908;6.916;2023-02-15T04:42:51;3.50;70.20
76263;DHT22;65080;50.908;6.916;2023-02-15T04:45:19;3.50;70.20
76263;DHT22;65080;50.908;6.916;2023-02-15T04:47:47;3.40;70.00
76263;DHT22;65080;50.908;6.916;2023-02-15T04:50:16;3.50;70.20
76263;DHT22;65080;50.908;6.916;2023-02-15T04:52:44;3.40;70.20
76263;DHT22;65080;50.908;6.916;2023-02-15T04:55:14;3.50;70.30
76263;DHT22;65080;50.908;6.916;2023-02-15T04:57:42;3.40;70.30
76263;DHT22;65080;50.908;6.916;2023-02-15T05:00:11;3.40;70.20
76263;DHT22;65080;50.908;6.916;2023-02-15T05:02:39;3.40;70.20
76263;DHT22;65080;50.908;6.916;2023-02-15T05:05:08;3.40;70.20
76263;DHT22;65080;50.908;6.916;2023-02-15T05:07:39;3.40;70.30
76263;DHT22;65080;50.908;6.916;2023-02-15T05:10:08;3.30;70.30
76263;DHT22;65080;50.908;6.916;2023-02-15T05:12:38;3.30;70.40
76263;DHT22;65080;50.908;6.916;2023-02-15T05:15:07;3.30;70.40
76263;DHT22;65080;50.908;6.916;2023-02-15T05:17:36;3.30;70.50
76263;DHT22;65080;50.908;6.916;2023-02-15T05:20:05;3.30;70.50
76263;DHT22;65080;50.908;6.916;2023-02-15T05:22:34;3.30;70.60
76263;DHT22;65080;50.908;6.916;2023-02-15T05:25:02;3.30;70.60
76263;DHT22;65080;50.908;6.916;2023-02-15T05:27:49;3.30;70.60
76263;DHT22;65080;50.908;6.916;2023-02-15T05:30:35;3.30;70.60
76263;DHT22;65080;50.908;6.916;2023-02-15T05:33:03;3.30;70.50
76263;DHT22;65080;50.908;6.916;2023-02-15T05:35:31;3.30;70.50
76263;DHT22;65080;50.908;6.916;2023-02-15T05:38:00;3.30;70.60
76263;DHT22;65080;50.908;6.916;2023-02-15T05:40:28;3.30;70.60
76263;DHT22;65080;50.908;6.916;2023-02-15T05:42:58;3.30;70.70
76263;DHT22;65080;50.908;6.916;2023-02-15T05:45:26;3.30;70.60
76263;DHT22;65080;50.908;6.916;2023-02-15T05:47:57;3.30;70.60
76263;DHT22;65080;50.908;6.916;2023-02-15T05:50:26;3.30;70.60
76263;DHT22;65080;50.908;6.916;2023-02-15T05:52:54;3.30;70.70
76263;DHT22;65080;50.908;6.916;2023-02-15T05:55:22;3.20;70.60
76263;DHT22;65080;50.908;6.916;2023-02-15T05:57:50;3.20;70.60
76263;DHT22;65080;50.908;6.916;2023-02-15T06:00:20;3.30;70.70
76263;DHT22;65080;50.908;6.916;2023-02-15T06:02:48;3.20;70.60
76263;DHT22;65080;50.908;6.916;2023-02-15T06:05:17;3.20;70.70
76263;DHT22;65080;50.908;6.916;2023-02-15T06:07:45;3.20;70.60
76263;DHT22;65080;50.908;6.916;2023-02-15T06:10:14;3.20;70.60
76263;DHT22;65080;50.908;6.916;2023-02-15T06:12:43;3.10;70.60
76263;DHT22;65080;50.908;6.916;2023-02-15T06:15:11;3.10;70.70
76263;DHT22;65080;50.908;6.916;2023-02-15T06:17:42;3.10;70.80
76263;DHT22;65080;50.908;6.916;2023-02-15T06:20:12;3.10;70.90
76263;DHT22;65080;50.908;6.916;2023-02-15T06:22:40;3.10;70.90
76263;DHT22;65080;50.908;6.916;2023-02-15T06:25:08;3.10;70.90
76263;DHT22;65080;50.908;6.916;2023-02-15T06:27:40;3.10;70.90
76263;DHT22;65080;50.908;6.916;2023-02-15T06:30:10;3.00;70.90
76263;DHT22;65080;50.908;6.916;2023-02-15T06:32:38;3.10;71.00
76263;DHT22;65080;50.908;6.916;2023-02-15T06:35:08;3.10;71.10
76263;DHT22;65080;50.908;6.916;2023-02-15T06:37:37;3.10;71.10
76263;DHT22;65080;50.908;6.916;2023-02-15T06:40:06;3.10;71.00
76263;DHT22;65080;50.908;6.916;2023-02-15T06:42:35;3.10;71.10
76263;DHT22;65080;50.908;6.916;2023-02-15T06:45:03;3.20;71.10
76263;DHT22;65080;50.908;6.916;2023-02-15T06:47:34;3.20;71.10
76263;DHT22;65080;50.908;6.916;2023-02-15T06:50:03;3.20;71.10
76263;DHT22;65080;50.908;6.916;2023-02-15T06:52:33;3.20;70.90
76263;DHT22;65080;50.908;6.916;2023-02-15T06:55:01;3.20;71.00
76263;DHT22;65080;50.908;6.916;2023-02-15T06:57:29;3.20;71.00
76263;DHT22;65080;50.908;6.916;2023-02-15T06:59:59;3.20;71.00
76263;DHT22;65080;50.908;6.916;2023-02-15T07:02:28;3.20;70.90
76263;DHT22;65080;50.908;6.916;2023-02-15T07:04:56;3.20;70.80
76263;DHT22;65080;50.908;6.916;2023-02-15T07:07:25;3.20;70.90
76263;DHT22;65080;50.908;6.916;2023-02-15T07:09:54;3.20;71.00
76263;DHT22;65080;50.908;6.916;2023-02-15T07:12:23;3.20;71.10
76263;DHT22;65080;50.908;6.916;2023-02-15T07:15:10;3.20;71.00
76263;DHT22;65080;50.908;6.916;2023-02-15T07:17:39;3.10;70.90
76263;DHT22;65080;50.908;6.916;2023-02-15T07:20:09;3.10;71.00
76263;DHT22;65080;50.908;6.916;2023-02-15T07:22:38;3.10;71.10
76263;DHT22;65080;50.908;6.916;2023-02-15T07:25:10;3.20;71.20
76263;DHT22;65080;50.908;6.916;2023-02-15T07:27:39;3.20;71.10
76263;DHT22;65080;50.908;6.916;2023-02-15T07:30:09;3.20;70.90
76263;DHT22;65080;50.908;6.916;2023-02-15T07:32:38;3.20;70.80
76263;DHT22;65080;50.908;6.916;2023-02-15T07:35:31;3.20;70.90
76263;DHT22;65080;50.908;6.916;2023-02-15T07:37:59;3.30;71.00
76263;DHT22;65080;50.908;6.916;2023-02-15T07:40:29;3.40;71.00
76263;DHT22;65080;50.908;6.916;2023-02-15T07:42:58;3.30;70.90
76263;DHT22;65080;50.908;6.916;2023-02-15T07:45:26;3.30;70.90
76263;DHT22;65080;50.908;6.916;2023-02-15T07:47:54;3.30;70.70
76263;DHT22;65080;50.908;6.916;2023-02-15T07:50:23;3.30;70.80
76263;DHT22;65080;50.908;6.916;2023-02-15T07:52:51;3.30;70.80
76263;DHT22;65080;50.908;6.916;2023-02-15T07:55:19;3.40;70.80
76263;DHT22;65080;50.908;6.916;2023-02-15T07:57:50;3.40;70.80
76263;DHT22;65080;50.908;6.916;2023-02-15T08:00:21;3.40;70.80
76263;DHT22;65080;50.908;6.916;2023-02-15T08:02:53;3.40;70.80
76263;DHT22;65080;50.908;6.916;2023-02-15T08:05:36;3.40;70.60
76263;DHT22;65080;50.908;6.916;2023-02-15T08:08:04;3.50;70.70
76263;DHT22;65080;50.908;6.916;2023-02-15T08:10:33;3.50;70.70
76263;DHT22;65080;50.908;6.916;2023-02-15T08:13:22;3.50;70.60
76263;DHT22;65080;50.908;6.916;2023-02-15T08:15:50;3.60;70.70
76263;DHT22;65080;50.908;6.916;2023-02-15T08:18:19;3.60;70.60
76263;DHT22;65080;50.908;6.916;2023-02-15T08:20:49;3.60;70.50
76263;DHT22;65080;50.908;6.916;2023-02-15T08:23:17;3.70;70.50
76263;DHT22;65080;50.908;6.916;2023-02-15T08:25:46;3.70;70.50
76263;DHT22;65080;50.908;6.916;2023-02-15T08:28:14;3.80;70.50
76263;DHT22;65080;50.908;6.916;2023-02-15T08:30:44;3.90;70.40
76263;DHT22;65080;50.908;6.916;2023-02-15T08:33:12;4.00;70.40
76263;DHT22;65080;50.908;6.916;2023-02-15T08:35:40;4.10;70.30
76263;DHT22;65080;50.908;6.916;2023-02-15T08:38:08;4.20;70.00
76263;DHT22;65080;50.908;6.916;2023-02-15T08:40:37;4.30;69.80
76263;DHT22;65080;50.908;6.916;2023-02-15T08:43:05;4.30;69.70
76263;DHT22;65080;50.908;6.916;2023-02-15T08:45:34;4.40;69.60
76263;DHT22;65080;50.908;6.916;2023-02-15T08:48:04;4.40;69.40
76263;DHT22;65080;50.908;6.916;2023-02-15T08:50:32;4.40;69.40
76263;DHT22;65080;50.908;6.916;2023-02-15T08:53:00;4.50;69.40
76263;DHT22;65080;50.908;6.916;2023-02-15T08:55:29;4.50;69.20
76263;DHT22;65080;50.908;6.916;2023-02-15T08:57:57;4.50;69.10
76263;DHT22;65080;50.908;6.916;2023-02-15T09:00:25;4.60;69.10
76263;DHT22;65080;50.908;6.916;2023-02-15T09:02:55;4.70;69.00
76263;DHT22;65080;50.908;6.916;2023-02-15T09:05:24;4.80;68.90
76263;DHT22;65080;50.908;6.916;2023-02-15T09:07:53;4.90;68.70
76263;DHT22;65080;50.908;6.916;2023-02-15T09:10:21;4.90;68.50
76263;DHT22;65080;50.908;6.916;2023-02-15T09:12:49;5.00;68.40
76263;DHT22;65080;50.908;6.916;2023-02-15T09:15:18;5.00;68.30
76263;DHT22;65080;50.908;6.916;2023-02-15T09:17:46;5.10;68.20
76263;DHT22;65080;50.908;6.916;2023-02-15T09:20:15;5.10;68.00
76263;DHT22;65080;50.908;6.916;2023-02-15T09:22:44;5.20;68.00
76263;DHT22;65080;50.908;6.916;2023-02-15T09:25:13;5.30;67.80
76263;DHT22;65080;50.908;6.916;2023-02-15T09:27:41;5.40;67.70
76263;DHT22;65080;50.908;6.916;2023-02-15T09:30:11;5.50;67.60
76263;DHT22;65080;50.908;6.916;2023-02-15T09:32:39;5.60;67.50
76263;DHT22;65080;50.908;6.916;2023-02-15T09:35:07;5.70;67.20
76263;DHT22;65080;50.908;6.916;2023-02-15T09:37:36;5.80;67.10
76263;DHT22;65080;50.908;6.916;2023-02-15T09:40:08;5.90;67.00
76263;DHT22;65080;50.908;6.916;2023-02-15T09:42:52;6.00;66.80
76263;DHT22;65080;50.908;6.916;2023-02-15T09:45:44;6.10;66.60
76263;DHT22;65080;50.908;6.916;2023-02-15T09:48:29;6.20;66.30
76263;DHT22;65080;50.908;6.916;2023-02-15T09:51:17;6.20;66.10
76263;DHT22;65080;50.908;6.916;2023-02-15T09:53:59;6.30;66.10
76263;DHT22;65080;50.908;6.916;2023-02-15T09:56:37;6.50;66.00
76263;DHT22;65080;50.908;6.916;2023-02-15T09:59:11;6.50;65.70
76263;DHT22;65080;50.908;6.916;2023-02-15T10:01:49;6.60;65.60
76263;DHT22;65080;50.908;6.916;2023-02-15T10:04:40;6.70;65.40
76263;DHT22;65080;50.908;6.916;2023-02-15T10:07:22;6.80;65.30
76263;DHT22;65080;50.908;6.916;2023-02-15T10:10:02;6.90;65.00
76263;DHT22;65080;50.908;6.916;2023-02-15T10:12:47;7.00;64.80
76263;DHT22;65080;50.908;6.916;2023-02-15T10:18:37;7.00;64.10
76263;DHT22;65080;50.908;6.916;2023-02-15T10:21:14;7.10;64.20
76263;DHT22;65080;50.908;6.916;2023-02-15T10:23:57;7.20;64.30
76263;DHT22;65080;50.908;6.916;2023-02-15T10:26:35;7.30;64.20
76263;DHT22;65080;50.908;6.916;2023-02-15T10:29:16;7.30;64.00
76263;DHT22;65080;50.908;6.916;2023-02-15T10:31:49;7.40;63.80
76263;DHT22;65080;50.908;6.916;2023-02-15T10:34:24;7.50;63.60
76263;DHT22;65080;50.908;6.916;2023-02-15T10:37:12;7.60;63.40
76263;DHT22;65080;50.908;6.916;2023-02-15T10:39:51;7.60;63.20
76263;DHT22;65080;50.908;6.916;2023-02-15T10:42:30;7.70;63.30
76263;DHT22;65080;50.908;6.916;2023-02-15T10:45:11;7.90;63.20
76263;DHT22;65080;50.908;6.916;2023-02-15T10:48:06;7.90;63.10
76263;DHT22;65080;50.908;6.916;2023-02-15T10:50:47;8.00;62.60
76263;DHT22;65080;50.908;6.916;2023-02-15T10:53:42;8.10;62.40
76263;DHT22;65080;50.908;6.916;2023-02-15T10:56:20;8.20;62.20
76263;DHT22;65080;50.908;6.916;2023-02-15T10:59:10;8.20;62.10
76263;DHT22;65080;50.908;6.916;2023-02-15T11:01:49;8.30;61.80
76263;DHT22;65080;50.908;6.916;2023-02-15T11:04:40;8.30;61.80
76263;DHT22;65080;50.908;6.916;2023-02-15T11:07:16;8.30;61.50
76263;DHT22;65080;50.908;6.916;2023-02-15T11:09:49;8.40;61.70
76263;DHT22;65080;50.908;6.916;2023-02-15T11:12:23;8.50;61.70
76263;DHT22;65080;50.908;6.916;2023-02-15T11:14:56;8.50;61.40
76263;DHT22;65080;50.908;6.916;2023-02-15T11:17:33;8.60;61.20
76263;DHT22;65080;50.908;6.916;2023-02-15T11:20:08;8.70;61.00
76263;DHT22;65080;50.908;6.916;2023-02-15T11:22:47;8.80;60.90
76263;DHT22;65080;50.908;6.916;2023-02-15T11:25:19;8.90;61.50
76263;DHT22;65080;50.908;6.916;2023-02-15T11:27:50;8.90;60.60
76263;DHT22;65080;50.908;6.916;2023-02-15T11:30:21;8.90;60.50
76263;DHT22;65080;50.908;6.916;2023-02-15T11:32:53;9.00;60.30
76263;DHT22;65080;50.908;6.916;2023-02-15T11:35:26;9.10;60.20
76263;DHT22;65080;50.908;6.916;2023-02-15T11:38:01;9.10;60.00
76263;DHT22;65080;50.908;6.916;2023-02-15T11:40:35;9.20;59.90
76263;DHT22;65080;50.908;6.916;2023-02-15T11:43:10;9.30;59.80
76263;DHT22;65080;50.908;6.916;2023-02-15T11:45:42;9.40;59.70
76263;DHT22;65080;50.908;6.916;2023-02-15T11:48:13;9.40;59.50
76263;DHT22;65080;50.908;6.916;2023-02-15T11:50:43;9.50;59.30
76263;DHT22;65080;50.908;6.916;2023-02-15T11:53:14;9.60;59.30
76263;DHT22;65080;50.908;6.916;2023-02-15T11:55:44;9.60;59.10
76263;DHT22;65080;50.908;6.916;2023-02-15T11:58:21;9.70;59.10
76263;DHT22;65080;50.908;6.916;2023-02-15T12:00:56;9.80;59.00
76263;DHT22;65080;50.908;6.916;2023-02-15T12:03:29;9.90;58.90
76263;DHT22;65080;50.908;6.916;2023-02-15T12:06:05;10.00;58.00
76263;DHT22;65080;50.908;6.916;2023-02-15T12:08:37;10.20;57.80
76263;DHT22;65080;50.908;6.916;2023-02-15T12:11:09;10.30;57.60
76263;DHT22;65080;50.908;6.916;2023-02-15T12:13:55;10.40;57.70
76263;DHT22;65080;50.908;6.916;2023-02-15T12:16:24;10.50;57.20
76263;DHT22;65080;50.908;6.916;2023-02-15T12:18:56;10.60;57.00
76263;DHT22;65080;50.908;6.916;2023-02-15T12:21:28;10.70;56.80
76263;DHT22;65080;50.908;6.916;2023-02-15T12:24:02;10.80;56.60
76263;DHT22;65080;50.908;6.916;2023-02-15T12:26:32;10.90;56.60
76263;DHT22;65080;50.908;6.916;2023-02-15T12:29:07;11.00;56.50
76263;DHT22;65080;50.908;6.916;2023-02-15T12:31:43;11.20;56.40
76263;DHT22;65080;50.908;6.916;2023-02-15T12:34:18;11.30;56.20
76263;DHT22;65080;50.908;6.916;2023-02-15T12:36:51;11.30;55.80
76263;DHT22;65080;50.908;6.916;2023-02-15T12:39:25;11.40;55.70
76263;DHT22;65080;50.908;6.916;2023-02-15T12:41:59;11.40;55.50
76263;DHT22;65080;50.908;6.916;2023-02-15T12:44:30;11.40;55.20
76263;DHT22;65080;50.908;6.916;2023-02-15T12:47:00;11.40;55.20
76263;DHT22;65080;50.908;6.916;2023-02-15T12:49:31;11.50;55.10
76263;DHT22;65080;50.908;6.916;2023-02-15T12:52:01;11.50;54.90
76263;DHT22;65080;50.908;6.916;2023-02-15T12:54:33;11.60;54.80
76263;DHT22;65080;50.908;6.916;2023-02-15T12:57:29;11.60;54.70
76263;DHT22;65080;50.908;6.916;2023-02-15T12:59:59;11.60;54.30
76263;DHT22;65080;50.908;6.916;2023-02-15T13:02:34;11.70;54.50
76263;DHT22;65080;50.908;6.916;2023-02-15T13:05:14;11.70;54.30
76263;DHT22;65080;50.908;6.916;2023-02-15T13:07:46;11.70;54.10
76263;DHT22;65080;50.908;6.916;2023-02-15T13:10:25;11.70;54.10
76263;DHT22;65080;50.908;6.916;2023-02-15T13:12:55;11.80;53.80
76263;DHT22;65080;50.908;6.916;2023-02-15T13:15:36;11.80;53.80
76263;DHT22;65080;50.908;6.916;2023-02-15T13:18:10;11.80;53.70
76263;DHT22;65080;50.908;6.916;2023-02-15T13:20:42;11.90;53.60
76263;DHT22;65080;50.908;6.916;2023-02-15T13:23:24;11.90;53.60
76263;DHT22;65080;50.908;6.916;2023-02-15T13:25:57;12.00;53.60
76263;DHT22;65080;50.908;6.916;2023-02-15T13:28:32;12.00;53.60
76263;DHT22;65080;50.908;6.916;2023-02-15T13:31:12;12.20;53.40
76263;DHT22;65080;50.908;6.916;2023-02-15T13:33:43;12.20;53.30
76263;DHT22;65080;50.908;6.916;2023-02-15T13:36:21;12.30;53.30
76263;DHT22;65080;50.908;6.916;2023-02-15T13:39:12;12.30;53.20
76263;DHT22;65080;50.908;6.916;2023-02-15T13:41:53;12.40;53.20
76263;DHT22;65080;50.908;6.916;2023-02-15T13:44:40;12.50;53.30
76263;DHT22;65080;50.908;6.916;2023-02-15T13:47:20;12.50;53.10
76263;DHT22;65080;50.908;6.916;2023-02-15T13:50:01;12.60;53.10
76263;DHT22;65080;50.908;6.916;2023-02-15T13:52:35;12.60;52.90
76263;DHT22;65080;50.908;6.916;2023-02-15T13:55:28;12.60;52.80
76263;DHT22;65080;50.908;6.916;2023-02-15T14:01:09;12.80;52.70
76263;DHT22;65080;50.908;6.916;2023-02-15T14:03:56;12.90;52.70
76263;DHT22;65080;50.908;6.916;2023-02-15T14:06:43;13.00;52.50
76263;DHT22;65080;50.908;6.916;2023-02-15T14:09:24;13.20;52.50
76263;DHT22;65080;50.908;6.916;2023-02-15T14:12:11;13.40;52.40
76263;DHT22;65080;50.908;6.916;2023-02-15T14:15:02;13.50;52.20
76263;DHT22;65080;50.908;6.916;2023-02-15T14:17:45;13.60;51.80
76263;DHT22;65080;50.908;6.916;2023-02-15T14:20:20;13.70;51.70
76263;DHT22;65080;50.908;6.916;2023-02-15T14:22:55;13.80;51.60
76263;DHT22;65080;50.908;6.916;2023-02-15T14:25:34;13.80;51.30
76263;DHT22;65080;50.908;6.916;2023-02-15T14:28:10;13.80;51.20
76263;DHT22;65080;50.908;6.916;2023-02-15T14:30:42;13.80;51.20
76263;DHT22;65080;50.908;6.916;2023-02-15T14:33:28;13.90;51.30
76263;DHT22;65080;50.908;6.916;2023-02-15T14:36:02;13.90;51.00
76263;DHT22;65080;50.908;6.916;2023-02-15T14:41:40;14.10;50.60
76263;DHT22;65080;50.908;6.916;2023-02-15T14:44:15;14.20;50.60
76263;DHT22;65080;50.908;6.916;2023-02-15T14:46:50;14.30;50.70
76263;DHT22;65080;50.908;6.916;2023-02-15T14:49:22;14.50;50.50
76263;DHT22;65080;50.908;6.916;2023-02-15T14:52:00;14.50;50.10
76263;DHT22;65080;50.908;6.916;2023-02-15T14:54:54;14.60;49.90
76263;DHT22;65080;50.908;6.916;2023-02-15T14:57:32;14.60;49.40
76263;DHT22;65080;50.908;6.916;2023-02-15T15:00:36;14.60;49.50
76263;DHT22;65080;50.908;6.916;2023-02-15T15:03:19;14.60;49.20
76263;DHT22;65080;50.908;6.916;2023-02-15T15:05:51;14.50;49.20
76263;DHT22;65080;50.908;6.916;2023-02-15T15:08:25;14.40;49.40
76263;DHT22;65080;50.908;6.916;2023-02-15T15:10:54;14.40;49.50
76263;DHT22;65080;50.908;6.916;2023-02-15T15:13:55;14.30;49.50
76263;DHT22;65080;50.908;6.916;2023-02-15T15:19:56;14.20;49.50
76263;DHT22;65080;50.908;6.916;2023-02-15T15:22:26;14.10;49.60
76263;DHT22;65080;50.908;6.916;2023-02-15T15:24:55;14.00;49.80
76263;DHT22;65080;50.908;6.916;2023-02-15T15:27:50;13.90;49.60
76263;DHT22;65080;50.908;6.916;2023-02-15T15:30:50;13.80;49.60
76263;DHT22;65080;50.908;6.916;2023-02-15T15:33:46;13.70;49.70
76263;DHT22;65080;50.908;6.916;2023-02-15T15:39:57;13.50;50.10
76263;DHT22;65080;50.908;6.916;2023-02-15T15:42:35;13.40;50.20
76263;DHT22;65080;50.908;6.916;2023-02-15T15:45:38;13.20;50.20
76263;DHT22;65080;50.908;6.916;2023-02-15T15:48:26;13.20;50.40
76263;DHT22;65080;50.908;6.916;2023-02-15T15:51:02;13.10;50.50
76263;DHT22;65080;50.908;6.916;2023-02-15T15:53:34;13.00;50.60
76263;DHT22;65080;50.908;6.916;2023-02-15T15:56:10;12.90;50.70
76263;DHT22;65080;50.908;6.916;2023-02-15T15:58:43;12.90;50.80
76263;DHT22;65080;50.908;6.916;2023-02-15T16:01:12;12.80;50.90
76263;DHT22;65080;50.908;6.916;2023-02-15T16:03:50;12.70;50.90
76263;DHT22;65080;50.908;6.916;2023-02-15T16:06:30;12.70;51.10
76263;DHT22;65080;50.908;6.916;2023-02-15T16:09:14;12.60;51.20
76263;DHT22;65080;50.908;6.916;2023-02-15T16:11:43;12.50;51.20
76263;DHT22;65080;50.908;6.916;2023-02-15T16:14:15;12.50;51.40
76263;DHT22;65080;50.908;6.916;2023-02-15T16:16:51;12.40;51.60
76263;DHT22;65080;50.908;6.916;2023-02-15T16:19:24;12.30;51.60
76263;DHT22;65080;50.908;6.916;2023-02-15T16:21:54;12.30;51.80
76263;DHT22;65080;50.908;6.916;2023-02-15T16:24:30;12.20;51.90
76263;DHT22;65080;50.908;6.916;2023-02-15T16:27:31;12.10;52.00
76263;DHT22;65080;50.908;6.916;2023-02-15T16:30:22;12.10;52.20
76263;DHT22;65080;50.908;6.916;2023-02-15T16:32:54;12.00;52.20
76263;DHT22;65080;50.908;6.916;2023-02-15T16:35:24;12.00;52.40
76263;DHT22;65080;50.908;6.916;2023-02-15T16:37:52;11.90;52.40
76263;DHT22;65080;50.908;6.916;2023-02-15T16:40:46;11.90;52.60
76263;DHT22;65080;50.908;6.916;2023-02-15T16:43:21;11.80;52.70
76263;DHT22;65080;50.908;6.916;2023-02-15T16:45:50;11.80;52.70
76263;DHT22;65080;50.908;6.916;2023-02-15T16:48:21;11.70;52.90